createdAt,value
2016-06-30T00:00:09.034Z,36.15
2016-06-30T00:01:09.061Z,36.06
2016-06-30T00:02:09.705Z,36.06
2016-06-30T00:03:09.726Z,36.15
2016-06-30T00:04:09.754Z,36.35
2016-06-30T00:05:09.775Z,36.63
2016-06-30T00:06:09.820Z,36.35
2016-06-30T00:07:09.839Z,36.35
2016-06-30T00:08:09.249Z,36.25
2016-06-30T00:09:09.271Z,36.35
2016-06-30T00:10:09.922Z,36.35
2016-06-30T00:11:09.951Z,36.63
2016-06-30T00:12:09.983Z,36.25
2016-06-30T00:13:09.997Z,36.54
2016-06-30T00:14:10.028Z,36.73
2016-06-30T00:15:09.435Z,36.83
2016-06-30T00:16:10.081Z,36.83
2016-06-30T00:17:09.495Z,36.93
2016-06-30T00:18:12.584Z,37.02
2016-06-30T00:19:09.567Z,36.83
2016-06-30T00:20:10.196Z,36.93
2016-06-30T00:21:09.623Z,36.71
2016-06-30T00:22:10.261Z,36.91
2016-06-30T00:23:09.682Z,37.12
2016-06-30T00:24:10.298Z,37.1
2016-06-30T00:25:10.333Z,37.1
2016-06-30T00:26:09.735Z,37.1
2016-06-30T00:27:10.388Z,37.1
2016-06-30T00:28:09.794Z,37.1
2016-06-30T00:29:10.460Z,37.1
2016-06-30T00:30:09.843Z,37.19
2016-06-30T00:31:09.891Z,37.39
2016-06-30T00:32:09.909Z,37.39
2016-06-30T00:33:09.920Z,37.68
2016-06-30T00:34:10.571Z,37.87
2016-06-30T00:35:09.971Z,37.39
2016-06-30T00:36:10.012Z,37.87
2016-06-30T00:37:10.699Z,38.06
2016-06-30T00:38:10.058Z,38.16
2016-06-30T00:39:10.084Z,37.96
2016-06-30T00:40:10.120Z,38.06
2016-06-30T00:41:10.761Z,38.16
2016-06-30T00:42:10.792Z,38.06
2016-06-30T00:43:10.195Z,37.68
2016-06-30T00:44:10.219Z,37.77
2016-06-30T00:45:10.867Z,37.48
2016-06-30T00:46:10.274Z,37.68
2016-06-30T00:47:10.919Z,38.06
2016-06-30T00:48:10.954Z,38.06
2016-06-30T00:49:10.351Z,37.87
2016-06-30T00:50:11.006Z,38.26
2016-06-30T00:51:11.032Z,38.35
2016-06-30T00:52:10.434Z,38.35
2016-06-30T00:53:11.081Z,38.45
2016-06-30T00:54:11.102Z,38.24
2016-06-30T00:55:11.132Z,38.54
2016-06-30T00:56:10.539Z,38.45
2016-06-30T00:57:10.569Z,38.35
2016-06-30T00:58:10.599Z,38.35
2016-06-30T00:59:10.624Z,38.33
2016-06-30T01:00:11.275Z,38.54
2016-06-30T01:01:10.670Z,38.62
2016-06-30T01:02:10.700Z,38.72
2016-06-30T01:03:11.367Z,38.62
2016-06-30T01:04:10.762Z,38.72
2016-06-30T01:05:11.402Z,38.53
2016-06-30T01:06:11.465Z,38.53
2016-06-30T01:07:11.578Z,38.72
2016-06-30T01:08:10.867Z,38.62
2016-06-30T01:09:10.892Z,38.62
2016-06-30T01:10:10.922Z,38.91
2016-06-30T01:11:11.563Z,38.72
2016-06-30T01:12:11.600Z,39.01
2016-06-30T01:13:11.626Z,38.81
2016-06-30T01:14:11.667Z,38.81
2016-06-30T01:15:11.664Z,38.81
2016-06-30T01:16:11.079Z,38.91
2016-06-30T01:17:11.719Z,38.81
2016-06-30T01:18:11.752Z,38.81
2016-06-30T01:19:11.782Z,38.91
2016-06-30T01:20:11.802Z,39.11
2016-06-30T01:21:11.830Z,39.01
2016-06-30T01:22:11.854Z,39.2
2016-06-30T01:23:11.889Z,39.11
2016-06-30T01:24:11.901Z,39.29
2016-06-30T01:25:11.942Z,39.01
2016-06-30T01:26:11.955Z,39.2
2016-06-30T01:27:11.995Z,39.29
2016-06-30T01:28:11.394Z,39.39
2016-06-30T01:29:12.045Z,39.47
2016-06-30T01:30:11.438Z,39.18
2016-06-30T01:31:12.092Z,39.37
2016-06-30T01:32:11.489Z,39.47
2016-06-30T01:33:11.523Z,39.47
2016-06-30T01:34:12.170Z,39.37
2016-06-30T01:35:12.207Z,39.66
2016-06-30T01:36:11.607Z,39.56
2016-06-30T01:37:11.638Z,39.56
2016-06-30T01:38:11.666Z,39.66
2016-06-30T01:39:12.297Z,39.95
2016-06-30T01:40:12.364Z,39.56
2016-06-30T01:41:11.789Z,39.66
2016-06-30T01:42:12.381Z,39.56
2016-06-30T01:43:12.415Z,39.76
2016-06-30T01:44:12.430Z,39.86
2016-06-30T01:45:12.465Z,39.95
2016-06-30T01:46:12.489Z,39.66
2016-06-30T01:47:11.888Z,39.76
2016-06-30T01:48:12.545Z,39.76
2016-06-30T01:49:12.563Z,39.95
2016-06-30T01:50:11.982Z,39.76
2016-06-30T01:51:12.627Z,40.14
2016-06-30T01:52:12.034Z,40.24
2016-06-30T01:53:12.686Z,39.95
2016-06-30T01:54:12.071Z,40.31
2016-06-30T01:55:12.111Z,40.34
2016-06-30T01:56:12.751Z,39.86
2016-06-30T01:57:12.782Z,40.12
2016-06-30T01:58:12.818Z,40.03
2016-06-30T01:59:12.215Z,40.22
2016-06-30T02:00:12.856Z,40.14
2016-06-30T02:01:12.885Z,40.41
2016-06-30T02:02:12.910Z,40.24
2016-06-30T02:03:12.318Z,40.12
2016-06-30T02:04:12.954Z,40.41
2016-06-30T02:05:12.981Z,40.31
2016-06-30T02:06:13.018Z,40.41
2016-06-30T02:07:13.032Z,40.41
2016-06-30T02:08:13.056Z,40.7
2016-06-30T02:09:13.093Z,40.41
2016-06-30T02:10:12.493Z,40.51
2016-06-30T02:11:12.527Z,40.41
2016-06-30T02:12:12.548Z,40.41
2016-06-30T02:13:13.198Z,40.51
2016-06-30T02:14:13.219Z,40.89
2016-06-30T02:15:13.251Z,40.99
2016-06-30T02:16:12.652Z,40.89
2016-06-30T02:17:13.297Z,40.89
2016-06-30T02:18:13.320Z,40.99
2016-06-30T02:19:12.730Z,40.89
2016-06-30T02:20:13.369Z,41.18
2016-06-30T02:21:13.407Z,40.99
2016-06-30T02:22:12.803Z,41.08
2016-06-30T02:23:12.829Z,41.18
2016-06-30T02:24:12.864Z,41.18
2016-06-30T02:25:13.497Z,41.18
2016-06-30T02:26:13.522Z,41.18
2016-06-30T02:27:13.553Z,41.28
2016-06-30T02:28:12.994Z,41.08
2016-06-30T02:29:13.607Z,41.18
2016-06-30T02:30:13.012Z,41.08
2016-06-30T02:31:13.036Z,41.28
2016-06-30T02:32:13.677Z,41.28
2016-06-30T02:33:13.101Z,41.18
2016-06-30T02:34:13.109Z,41.18
2016-06-30T02:35:13.860Z,41.28
2016-06-30T02:36:13.860Z,41.16
2016-06-30T02:37:13.870Z,41.18
2016-06-30T02:38:13.929Z,41.28
2016-06-30T02:39:13.945Z,41.16
2016-06-30T02:40:13.948Z,41.16
2016-06-30T02:41:13.955Z,41.06
2016-06-30T02:42:13.966Z,41.18
2016-06-30T02:43:14.072Z,41.56
2016-06-30T02:44:13.380Z,41.56
2016-06-30T02:45:14.099Z,41.55
2016-06-30T02:46:13.427Z,41.83
2016-06-30T02:47:14.144Z,41.74
2016-06-30T02:48:14.141Z,41.83
2016-06-30T02:49:13.510Z,41.83
2016-06-30T02:50:14.162Z,41.64
2016-06-30T02:51:13.550Z,41.74
2016-06-30T02:52:13.583Z,42.12
2016-06-30T02:53:14.224Z,42.22
2016-06-30T02:54:13.625Z,42.03
2016-06-30T02:55:14.271Z,42.12
2016-06-30T02:56:14.333Z,42.22
2016-06-30T02:57:13.801Z,42.22
2016-06-30T02:58:14.350Z,42.22
2016-06-30T02:59:14.368Z,42.32
2016-06-30T03:00:14.398Z,42.03
2016-06-30T03:01:14.425Z,42.03
2016-06-30T03:02:13.832Z,41.93
2016-06-30T03:03:13.897Z,41.93
2016-06-30T03:04:14.497Z,42.41
2016-06-30T03:05:13.923Z,42.32
2016-06-30T03:06:14.026Z,42.22
2016-06-30T03:07:14.571Z,42.32
2016-06-30T03:08:14.598Z,42.41
2016-06-30T03:09:14.638Z,42.5
2016-06-30T03:10:14.096Z,42.5
2016-06-30T03:11:14.710Z,42.5
2016-06-30T03:12:14.099Z,42.5
2016-06-30T03:13:14.731Z,42.41
2016-06-30T03:14:14.756Z,42.8
2016-06-30T03:15:14.785Z,42.6
2016-06-30T03:16:14.809Z,42.7
2016-06-30T03:17:14.215Z,42.2
2016-06-30T03:18:14.867Z,42.99
2016-06-30T03:19:14.887Z,42.77
2016-06-30T03:20:14.911Z,42.68
2016-06-30T03:21:14.324Z,42.6
2016-06-30T03:22:14.501Z,42.7
2016-06-30T03:23:15.107Z,42.8
2016-06-30T03:24:15.026Z,42.6
2016-06-30T03:25:14.422Z,42.68
2016-06-30T03:26:14.454Z,42.5
2016-06-30T03:27:14.480Z,42.58
2016-06-30T03:28:15.118Z,43.18
2016-06-30T03:29:15.157Z,42.89
2016-06-30T03:30:15.183Z,42.87
2016-06-30T03:31:15.199Z,43.26
2016-06-30T03:32:15.253Z,43.16
2016-06-30T03:33:14.631Z,43.35
2016-06-30T03:34:15.261Z,43.35
2016-06-30T03:35:14.669Z,43.26
2016-06-30T03:36:14.698Z,43.07
2016-06-30T03:37:15.367Z,43.26
2016-06-30T03:38:15.363Z,43.18
2016-06-30T03:39:15.395Z,43.16
2016-06-30T03:40:15.426Z,43.16
2016-06-30T03:41:15.443Z,43.35
2016-06-30T03:42:14.842Z,43.16
2016-06-30T03:43:14.883Z,43.35
2016-06-30T03:44:15.530Z,43.45
2016-06-30T03:45:15.550Z,43.45
2016-06-30T03:46:15.574Z,43.54
2016-06-30T03:47:14.983Z,43.64
2016-06-30T03:48:15.005Z,43.16
2016-06-30T03:49:15.671Z,43.45
2016-06-30T03:50:15.052Z,43.54
2016-06-30T03:51:15.085Z,43.64
2016-06-30T03:52:15.723Z,43.54
2016-06-30T03:53:15.131Z,43.45
2016-06-30T03:54:15.788Z,43.16
2016-06-30T03:55:15.801Z,43.16
2016-06-30T03:56:15.935Z,43.16
2016-06-30T03:57:16.081Z,43.16
2016-06-30T03:58:15.975Z,43.16
2016-06-30T03:59:15.980Z,43.16
2016-06-30T04:00:15.993Z,43.64
2016-06-30T04:01:16.005Z,43.64
2016-06-30T04:02:16.003Z,43.26
2016-06-30T04:03:16.008Z,43.16
2016-06-30T04:04:16.124Z,43.47
2016-06-30T04:05:16.138Z,43.54
2016-06-30T04:06:15.455Z,43.54
2016-06-30T04:07:15.482Z,43.28
2016-06-30T04:08:15.513Z,43.26
2016-06-30T04:09:16.167Z,43.64
2016-06-30T04:10:16.177Z,43.47
2016-06-30T04:11:16.266Z,43.16
2016-06-30T04:12:15.615Z,43.76
2016-06-30T04:13:16.257Z,43.85
2016-06-30T04:14:15.740Z,43.76
2016-06-30T04:15:15.762Z,43.64
2016-06-30T04:16:16.379Z,43.74
2016-06-30T04:17:15.935Z,44.41
2016-06-30T04:18:16.430Z,44.24
2016-06-30T04:19:16.513Z,44.05
2016-06-30T04:20:15.897Z,44.14
2016-06-30T04:21:16.527Z,44.34
2016-06-30T04:22:15.913Z,44.34
2016-06-30T04:23:16.059Z,44.43
2016-06-30T04:24:16.069Z,44.53
2016-06-30T04:25:16.688Z,44.53
2016-06-30T04:26:16.076Z,44.53
2016-06-30T04:27:16.710Z,44.53
2016-06-30T04:28:16.092Z,44.72
2016-06-30T04:29:16.721Z,44.43
2016-06-30T04:30:16.109Z,44.53
2016-06-30T04:31:16.727Z,44.72
2016-06-30T04:32:16.744Z,44.82
2016-06-30T04:33:16.756Z,44.72
2016-06-30T04:34:16.173Z,44.91
2016-06-30T04:35:16.240Z,44.91
2016-06-30T04:36:16.219Z,44.91
2016-06-30T04:37:16.910Z,45.01
2016-06-30T04:38:16.878Z,44.91
2016-06-30T04:39:16.903Z,44.91
2016-06-30T04:40:16.943Z,44.91
2016-06-30T04:41:16.953Z,44.82
2016-06-30T04:42:16.977Z,44.72
2016-06-30T04:43:17.007Z,44.91
2016-06-30T04:44:16.421Z,44.72
2016-06-30T04:45:17.065Z,44.72
2016-06-30T04:46:17.077Z,44.82
2016-06-30T04:47:17.114Z,44.91
2016-06-30T04:48:17.132Z,44.82
2016-06-30T04:49:17.171Z,44.82
2016-06-30T04:50:17.184Z,44.91
2016-06-30T04:51:17.207Z,44.91
2016-06-30T04:52:17.243Z,44.91
2016-06-30T04:53:16.641Z,45.01
2016-06-30T04:54:17.287Z,45.1
2016-06-30T04:55:17.322Z,45.01
2016-06-30T04:56:17.327Z,45.01
2016-06-30T04:57:16.749Z,44.82
2016-06-30T04:58:16.759Z,45.01
2016-06-30T04:59:17.408Z,44.91
2016-06-30T05:00:16.813Z,45.01
2016-06-30T05:01:17.468Z,44.93
2016-06-30T05:02:17.500Z,45.1
2016-06-30T05:03:17.574Z,45.13
2016-06-30T05:04:17.557Z,44.93
2016-06-30T05:05:17.565Z,44.93
2016-06-30T05:06:16.970Z,44.93
2016-06-30T05:07:17.623Z,44.84
2016-06-30T05:08:17.651Z,44.93
2016-06-30T05:09:17.716Z,44.84
2016-06-30T05:10:17.736Z,44.84
2016-06-30T05:11:17.739Z,44.55
2016-06-30T05:12:17.134Z,44.84
2016-06-30T05:13:17.766Z,44.93
2016-06-30T05:14:17.792Z,44.93
2016-06-30T05:15:17.826Z,44.93
2016-06-30T05:16:17.850Z,45.03
2016-06-30T05:17:17.891Z,45.03
2016-06-30T05:18:17.286Z,45.13
2016-06-30T05:19:17.310Z,44.93
2016-06-30T05:20:17.936Z,45.13
2016-06-30T05:21:17.968Z,45.13
2016-06-30T05:22:17.990Z,45.03
2016-06-30T05:23:18.023Z,45.03
2016-06-30T05:24:17.558Z,44.93
2016-06-30T05:25:18.094Z,45.03
2016-06-30T05:26:18.119Z,44.93
2016-06-30T05:27:17.600Z,44.93
2016-06-30T05:28:18.142Z,44.93
2016-06-30T05:29:17.613Z,44.93
2016-06-30T05:30:17.621Z,44.84
2016-06-30T05:31:18.221Z,44.86
2016-06-30T05:32:18.470Z,44.74
2016-06-30T05:33:18.285Z,44.86
2016-06-30T05:34:18.302Z,44.93
2016-06-30T05:35:18.326Z,44.96
2016-06-30T05:36:18.371Z,44.96
2016-06-30T05:37:18.437Z,44.76
2016-06-30T05:38:17.911Z,44.86
2016-06-30T05:39:17.880Z,44.96
2016-06-30T05:40:18.461Z,44.86
2016-06-30T05:41:17.896Z,44.86
2016-06-30T05:42:18.527Z,45.15
2016-06-30T05:43:18.543Z,44.86
2016-06-30T05:44:17.938Z,44.96
2016-06-30T05:45:18.585Z,44.96
2016-06-30T05:46:18.626Z,44.96
2016-06-30T05:47:18.630Z,44.76
2016-06-30T05:48:18.050Z,44.57
2016-06-30T05:49:18.073Z,44.57
2016-06-30T05:50:18.705Z,44.76
2016-06-30T05:51:18.127Z,44.57
2016-06-30T05:52:18.755Z,44.67
2016-06-30T05:53:18.182Z,44.67
2016-06-30T05:54:18.848Z,44.57
2016-06-30T05:55:18.892Z,44.76
2016-06-30T05:56:18.879Z,44.76
2016-06-30T05:57:18.316Z,44.79
2016-06-30T05:58:18.311Z,44.49
2016-06-30T05:59:18.942Z,44.59
2016-06-30T06:00:18.357Z,44.69
2016-06-30T06:01:18.381Z,44.59
2016-06-30T06:02:18.409Z,44.4
2016-06-30T06:03:19.042Z,44.4
2016-06-30T06:04:19.073Z,44.59
2016-06-30T06:05:18.482Z,44.49
2016-06-30T06:06:18.521Z,44.49
2016-06-30T06:07:18.544Z,44.49
2016-06-30T06:08:19.175Z,44.59
2016-06-30T06:09:19.232Z,44.4
2016-06-30T06:10:18.691Z,44.4
2016-06-30T06:11:19.267Z,44.59
2016-06-30T06:12:19.288Z,44.59
2016-06-30T06:13:19.314Z,44.49
2016-06-30T06:14:18.823Z,44.49
2016-06-30T06:15:19.366Z,44.49
2016-06-30T06:16:19.393Z,44.31
2016-06-30T06:17:19.429Z,44.13
2016-06-30T06:18:18.888Z,44.23
2016-06-30T06:19:18.843Z,44.13
2016-06-30T06:20:19.477Z,44.13
2016-06-30T06:21:19.509Z,44.42
2016-06-30T06:22:19.543Z,44.32
2016-06-30T06:23:19.565Z,43.85
2016-06-30T06:24:18.980Z,44.04
2016-06-30T06:25:19.008Z,44.42
2016-06-30T06:26:19.042Z,44.04
2016-06-30T06:27:19.659Z,44.32
2016-06-30T06:28:19.070Z,44.32
2016-06-30T06:29:19.124Z,44.23
2016-06-30T06:30:19.735Z,44.04
2016-06-30T06:31:19.194Z,44.23
2016-06-30T06:32:19.796Z,44.13
2016-06-30T06:33:19.813Z,43.94
2016-06-30T06:34:19.253Z,43.65
2016-06-30T06:35:19.249Z,43.85
2016-06-30T06:36:19.902Z,43.87
2016-06-30T06:37:19.315Z,43.75
2016-06-30T06:38:19.971Z,43.77
2016-06-30T06:39:19.977Z,43.67
2016-06-30T06:40:19.398Z,44.06
2016-06-30T06:41:20.031Z,43.87
2016-06-30T06:42:20.075Z,43.96
2016-06-30T06:43:19.581Z,43.58
2016-06-30T06:44:19.579Z,43.48
2016-06-30T06:45:19.536Z,43.48
2016-06-30T06:46:20.162Z,43.29
2016-06-30T06:47:20.182Z,43.41
2016-06-30T06:48:19.596Z,43.5
2016-06-30T06:49:19.673Z,43.21
2016-06-30T06:50:20.265Z,43.12
2016-06-30T06:51:20.291Z,43.31
2016-06-30T06:52:19.702Z,43.21
2016-06-30T06:53:20.338Z,42.83
2016-06-30T06:54:19.848Z,42.93
2016-06-30T06:55:19.851Z,42.93
2016-06-30T06:56:20.426Z,42.83
2016-06-30T06:57:19.845Z,43.14
2016-06-30T06:58:20.515Z,42.85
2016-06-30T06:59:19.880Z,42.35
2016-06-30T07:00:20.590Z,42.56
2016-06-30T07:01:19.928Z,42.36
2016-06-30T07:02:19.967Z,42.18
2016-06-30T07:03:20.602Z,42.27
2016-06-30T07:04:20.007Z,42.36
2016-06-30T07:05:20.040Z,42.27
2016-06-30T07:06:20.059Z,42.27
2016-06-30T07:07:20.742Z,42.18
2016-06-30T07:08:20.134Z,41.88
2016-06-30T07:09:20.149Z,42.08
2016-06-30T07:10:20.190Z,42.08
2016-06-30T07:11:20.814Z,41.88
2016-06-30T07:12:20.222Z,41.78
2016-06-30T07:13:20.872Z,41.5
2016-06-30T07:14:20.890Z,41.11
2016-06-30T07:15:20.915Z,41.23
2016-06-30T07:16:20.946Z,41.23
2016-06-30T07:17:20.983Z,41.23
2016-06-30T07:18:21.018Z,41.23
2016-06-30T07:19:21.039Z,41.33
2016-06-30T07:20:20.528Z,41.33
2016-06-30T07:21:21.159Z,41.23
2016-06-30T07:22:21.159Z,41.33
2016-06-30T07:23:20.717Z,41.23
2016-06-30T07:24:21.539Z,41.13
2016-06-30T07:25:21.194Z,41.03
2016-06-30T07:26:21.243Z,41.03
2016-06-30T07:27:21.241Z,40.84
2016-06-30T07:28:21.278Z,40.67
2016-06-30T07:29:21.310Z,40.57
2016-06-30T07:30:21.319Z,40.67
2016-06-30T07:31:21.356Z,40.77
2016-06-30T07:32:21.374Z,40.96
2016-06-30T07:33:21.412Z,40.47
2016-06-30T07:34:20.829Z,40.28
2016-06-30T07:35:21.470Z,40.28
2016-06-30T07:36:21.505Z,40.09
2016-06-30T07:37:21.560Z,40.28
2016-06-30T07:38:20.923Z,40.19
2016-06-30T07:39:21.567Z,39.92
2016-06-30T07:40:21.460Z,40.09
2016-06-30T07:41:21.620Z,40.01
2016-06-30T07:42:21.027Z,40.01
2016-06-30T07:43:21.064Z,39.92
2016-06-30T07:44:21.710Z,39.92
2016-06-30T07:45:21.733Z,39.72
2016-06-30T07:46:21.761Z,40.11
2016-06-30T07:47:21.178Z,39.72
2016-06-30T07:48:21.844Z,39.82
2016-06-30T07:49:21.221Z,39.62
2016-06-30T07:50:21.876Z,39.72
2016-06-30T07:51:21.275Z,39.62
2016-06-30T07:52:21.316Z,39.55
2016-06-30T07:53:21.334Z,39.34
2016-06-30T07:54:21.982Z,39.55
2016-06-30T07:55:22.011Z,39.45
2016-06-30T07:56:22.029Z,39.45
2016-06-30T07:57:21.451Z,39.36
2016-06-30T07:58:21.468Z,38.97
2016-06-30T07:59:21.488Z,39.36
2016-06-30T08:00:21.555Z,39.36
2016-06-30T08:01:21.552Z,39.26
2016-06-30T08:02:22.249Z,39.36
2016-06-30T08:03:21.609Z,38.97
2016-06-30T08:04:22.266Z,39.06
2016-06-30T08:05:22.288Z,39.26
2016-06-30T08:06:25.343Z,39.16
2016-06-30T08:07:21.729Z,38.87
2016-06-30T08:08:22.362Z,38.89
2016-06-30T08:09:22.390Z,38.79
2016-06-30T08:10:22.429Z,38.7
2016-06-30T08:11:21.826Z,38.7
2016-06-30T08:12:21.854Z,38.79
2016-06-30T08:13:22.548Z,38.79
2016-06-30T08:14:22.535Z,38.41
2016-06-30T08:15:22.575Z,38.21
2016-06-30T08:16:22.586Z,38.6
2016-06-30T08:17:22.004Z,38.7
2016-06-30T08:18:22.650Z,38.7
2016-06-30T08:19:22.664Z,38.41
2016-06-30T08:20:22.084Z,38.5
2016-06-30T08:21:22.108Z,38.41
2016-06-30T08:22:22.133Z,38.41
2016-06-30T08:23:22.790Z,37.92
2016-06-30T08:24:22.197Z,37.92
2016-06-30T08:25:22.226Z,37.94
2016-06-30T08:26:22.875Z,38.12
2016-06-30T08:27:22.279Z,37.85
2016-06-30T08:28:22.916Z,37.94
2016-06-30T08:29:22.323Z,38.13
2016-06-30T08:30:22.978Z,38.04
2016-06-30T08:31:23.008Z,37.75
2016-06-30T08:32:23.026Z,37.46
2016-06-30T08:33:23.062Z,37.46
2016-06-30T08:34:22.480Z,37.17
2016-06-30T08:35:23.127Z,37.26
2016-06-30T08:36:23.154Z,37.17
2016-06-30T08:37:22.550Z,37.07
2016-06-30T08:38:23.206Z,36.88
2016-06-30T08:39:23.246Z,36.99
2016-06-30T08:40:23.257Z,37.17
2016-06-30T08:41:23.286Z,37.07
2016-06-30T08:42:22.716Z,36.98
2016-06-30T08:43:23.350Z,36.7
2016-06-30T08:44:23.377Z,37.09
2016-06-30T08:45:23.413Z,37.19
2016-06-30T08:46:23.427Z,36.99
2016-06-30T08:47:23.456Z,36.8
2016-06-30T08:48:23.505Z,36.6
2016-06-30T08:49:22.931Z,36.8
2016-06-30T08:50:23.554Z,36.9
2016-06-30T08:51:22.952Z,36.6
2016-06-30T08:52:22.988Z,36.51
2016-06-30T08:53:23.022Z,36.51
2016-06-30T08:54:23.661Z,36.6
2016-06-30T08:55:23.691Z,36.41
2016-06-30T08:56:23.717Z,36.51
2016-06-30T08:57:23.765Z,36.7
2016-06-30T08:58:23.786Z,36.32
2016-06-30T08:59:23.215Z,36.22
2016-06-30T09:00:23.223Z,36.41
2016-06-30T09:01:23.232Z,35.73
2016-06-30T09:02:23.310Z,35.73
2016-06-30T09:03:23.921Z,35.66
2016-06-30T09:04:23.325Z,35.85
2016-06-30T09:05:23.984Z,35.83
2016-06-30T09:06:23.426Z,35.83
2016-06-30T09:07:23.411Z,35.73
2016-06-30T09:08:23.461Z,35.73
2016-06-30T09:09:24.095Z,35.85
2016-06-30T09:10:23.510Z,35.83
2016-06-30T09:11:24.143Z,35.85
2016-06-30T09:12:23.565Z,35.85
2016-06-30T09:13:23.587Z,35.75
2016-06-30T09:14:24.349Z,35.94
2016-06-30T09:15:24.391Z,35.64
2016-06-30T09:16:24.410Z,35.46
2016-06-30T09:17:24.399Z,35.56
2016-06-30T09:18:24.402Z,35.27
2016-06-30T09:19:23.759Z,35.85
2016-06-30T09:20:24.485Z,35.36
2016-06-30T09:21:24.431Z,35.46
2016-06-30T09:22:23.845Z,35.56
2016-06-30T09:23:24.504Z,35.46
2016-06-30T09:24:24.526Z,35.66
2016-06-30T09:25:23.941Z,35.66
2016-06-30T09:26:23.958Z,35.66
2016-06-30T09:27:23.990Z,35.56
2016-06-30T09:28:24.651Z,35.56
2016-06-30T09:29:24.671Z,35.66
2016-06-30T09:30:24.698Z,35.27
2016-06-30T09:31:24.113Z,35.46
2016-06-30T09:32:24.762Z,35.46
2016-06-30T09:33:24.778Z,35.17
2016-06-30T09:34:24.810Z,35.17
2016-06-30T09:35:24.839Z,35.07
2016-06-30T09:36:24.256Z,35.27
2016-06-30T09:37:24.900Z,35.17
2016-06-30T09:38:24.940Z,35.17
2016-06-30T09:39:25.051Z,35.07
2016-06-30T09:40:24.359Z,35.17
2016-06-30T09:41:25.015Z,35.17
2016-06-30T09:42:25.047Z,35.27
2016-06-30T09:43:25.070Z,34.88
2016-06-30T09:44:25.105Z,34.69
2016-06-30T09:45:25.120Z,34.78
2016-06-30T09:46:24.534Z,34.59
2016-06-30T09:47:24.615Z,34.39
2016-06-30T09:48:24.603Z,34.39
2016-06-30T09:49:25.248Z,34.39
2016-06-30T09:50:25.273Z,34.3
2016-06-30T09:51:25.312Z,34.39
2016-06-30T09:52:24.722Z,34.31
2016-06-30T09:53:25.354Z,34.59
2016-06-30T09:54:25.394Z,34.89
2016-06-30T09:55:24.806Z,34.99
2016-06-30T09:56:25.458Z,34.7
2016-06-30T09:57:24.871Z,34.89
2016-06-30T09:58:25.510Z,34.89
2016-06-30T09:59:24.956Z,34.99
2016-06-30T10:00:25.579Z,34.99
2016-06-30T10:01:25.603Z,35.28
2016-06-30T10:02:25.628Z,35.19
2016-06-30T10:03:25.040Z,35.48
2016-06-30T10:04:25.708Z,35.38
2016-06-30T10:05:25.723Z,35.19
2016-06-30T10:06:25.766Z,35.28
2016-06-30T10:07:25.177Z,35.28
2016-06-30T10:08:25.834Z,34.99
2016-06-30T10:09:25.844Z,35.28
2016-06-30T10:10:25.255Z,35.09
2016-06-30T10:11:25.898Z,34.99
2016-06-30T10:12:25.306Z,34.99
2016-06-30T10:13:25.960Z,34.99
2016-06-30T10:14:25.365Z,35.09
2016-06-30T10:15:25.399Z,35.09
2016-06-30T10:16:25.471Z,35.09
2016-06-30T10:17:25.591Z,35.19
2016-06-30T10:18:26.252Z,35.19
2016-06-30T10:19:26.125Z,35.19
2016-06-30T10:20:25.540Z,35.09
2016-06-30T10:21:26.188Z,35.28
2016-06-30T10:22:25.598Z,35.19
2016-06-30T10:23:25.626Z,35.09
2016-06-30T10:24:25.658Z,35.09
2016-06-30T10:25:26.349Z,34.8
2016-06-30T10:26:25.706Z,34.8
2016-06-30T10:27:26.370Z,34.99
2016-06-30T10:28:25.787Z,34.8
2016-06-30T10:29:25.807Z,34.89
2016-06-30T10:30:26.455Z,34.8
2016-06-30T10:31:26.500Z,34.7
2016-06-30T10:32:25.899Z,34.89
2016-06-30T10:33:26.551Z,34.7
2016-06-30T10:34:26.573Z,34.43
2016-06-30T10:35:25.994Z,34.22
2016-06-30T10:36:26.010Z,34.12
2016-06-30T10:37:26.055Z,34.31
2016-06-30T10:38:26.068Z,34.51
2016-06-30T10:39:26.723Z,34.7
2016-06-30T10:40:26.749Z,34.02
2016-06-30T10:41:26.162Z,34.14
2016-06-30T10:42:26.201Z,34.23
2016-06-30T10:43:26.829Z,34.33
2016-06-30T10:44:26.877Z,34.14
2016-06-30T10:45:26.903Z,34.04
2016-06-30T10:46:26.317Z,34.04
2016-06-30T10:47:26.328Z,34.04
2016-06-30T10:48:26.981Z,33.94
2016-06-30T10:49:27.029Z,33.94
2016-06-30T10:50:26.422Z,33.75
2016-06-30T10:51:27.081Z,33.65
2016-06-30T10:52:27.105Z,33.56
2016-06-30T10:53:27.139Z,33.65
2016-06-30T10:54:26.539Z,33.65
2016-06-30T10:55:27.191Z,33.56
2016-06-30T10:56:26.593Z,33.75
2016-06-30T10:57:27.259Z,33.84
2016-06-30T10:58:27.290Z,33.56
2016-06-30T10:59:26.698Z,33.65
2016-06-30T11:00:27.335Z,33.46
2016-06-30T11:01:26.755Z,33.46
2016-06-30T11:02:27.411Z,33.84
2016-06-30T11:03:26.812Z,33.26
2016-06-30T11:04:27.462Z,33.18
2016-06-30T11:05:27.498Z,33.56
2016-06-30T11:06:26.905Z,33.28
2016-06-30T11:07:27.782Z,33.18
2016-06-30T11:08:26.966Z,33.26
2016-06-30T11:09:27.605Z,33.38
2016-06-30T11:10:27.658Z,33.09
2016-06-30T11:11:27.673Z,33.38
2016-06-30T11:12:27.706Z,33.01
2016-06-30T11:13:27.112Z,32.5
2016-06-30T11:14:27.754Z,32.62
2016-06-30T11:15:27.191Z,32.71
2016-06-30T11:16:27.832Z,32.71
2016-06-30T11:17:27.236Z,32.23
2016-06-30T11:18:27.870Z,32.23
2016-06-30T11:19:27.285Z,32.32
2016-06-30T11:20:27.942Z,32.54
2016-06-30T11:21:27.974Z,32.34
2016-06-30T11:22:27.398Z,31.95
2016-06-30T11:23:28.027Z,32.15
2016-06-30T11:24:28.066Z,32.15
2016-06-30T11:25:28.094Z,32.15
2016-06-30T11:26:27.506Z,31.97
2016-06-30T11:27:28.143Z,31.97
2016-06-30T11:28:28.188Z,31.87
2016-06-30T11:29:28.206Z,31.48
2016-06-30T11:30:27.627Z,31.68
2016-06-30T11:31:28.275Z,31.58
2016-06-30T11:32:27.681Z,31.58
2016-06-30T11:33:27.714Z,31.7
2016-06-30T11:34:28.378Z,31.21
2016-06-30T11:35:27.779Z,31.3
2016-06-30T11:36:27.818Z,30.62
2016-06-30T11:37:27.841Z,30.91
2016-06-30T11:38:28.484Z,31.21
2016-06-30T11:39:27.908Z,31.01
2016-06-30T11:40:28.554Z,31.03
2016-06-30T11:41:28.585Z,30.64
2016-06-30T11:42:28.624Z,30.64
2016-06-30T11:43:28.052Z,30.44
2016-06-30T11:44:28.667Z,30.35
2016-06-30T11:45:28.090Z,29.78
2016-06-30T11:46:28.743Z,30.26
2016-06-30T11:47:28.161Z,29.89
2016-06-30T11:48:28.797Z,29.11
2016-06-30T11:49:28.213Z,29.5
2016-06-30T11:50:28.870Z,29.5
2016-06-30T11:51:28.275Z,29.22
2016-06-30T11:52:28.928Z,28.93
2016-06-30T11:53:28.955Z,28.54
2016-06-30T11:54:28.984Z,29.03
2016-06-30T11:55:29.046Z,28.74
2016-06-30T11:56:29.059Z,28.65
2016-06-30T11:57:28.464Z,28.65
2016-06-30T11:58:28.504Z,28.26
2016-06-30T11:59:29.136Z,28.45
2016-06-30T12:00:29.173Z,28.36
2016-06-30T12:01:28.606Z,28.18
2016-06-30T12:02:28.631Z,28.38
2016-06-30T12:03:29.276Z,28.28
2016-06-30T12:04:29.297Z,27.7
2016-06-30T12:05:28.720Z,27.7
2016-06-30T12:06:28.746Z,27.42
2016-06-30T12:07:29.404Z,27.33
2016-06-30T12:08:29.427Z,27.23
2016-06-30T12:09:29.455Z,27.42
2016-06-30T12:10:28.870Z,27.25
2016-06-30T12:11:29.525Z,27.05
2016-06-30T12:12:29.560Z,26.76
2016-06-30T12:13:28.966Z,26.56
2016-06-30T12:14:29.630Z,26.46
2016-06-30T12:15:29.041Z,26.46
2016-06-30T12:16:29.695Z,26.46
2016-06-30T12:17:29.714Z,26.46
2016-06-30T12:18:29.754Z,26.56
2016-06-30T12:19:29.780Z,26.56
2016-06-30T12:20:29.197Z,26.76
2016-06-30T12:21:29.221Z,26.37
2016-06-30T12:22:29.893Z,26.56
2016-06-30T12:23:29.293Z,26.46
2016-06-30T12:24:29.946Z,26.46
2016-06-30T12:25:29.354Z,26.37
2016-06-30T12:26:30.015Z,26.46
2016-06-30T12:27:30.039Z,26.38
2016-06-30T12:28:29.458Z,26.28
2016-06-30T12:29:29.485Z,26.09
2016-06-30T12:30:30.139Z,25.79
2016-06-30T12:31:30.176Z,25.79
2016-06-30T12:32:30.211Z,25.6
2016-06-30T12:33:29.659Z,25.71
2016-06-30T12:34:29.647Z,25.61
2016-06-30T12:35:30.314Z,25.32
2016-06-30T12:36:29.790Z,25.42
2016-06-30T12:37:29.946Z,25.22
2016-06-30T12:38:29.795Z,25.51
2016-06-30T12:39:30.446Z,25.12
2016-06-30T12:40:30.539Z,25.04
2016-06-30T12:41:30.512Z,24.93
2016-06-30T12:42:30.526Z,24.95
2016-06-30T12:43:30.054Z,24.55
2016-06-30T12:44:30.086Z,24.46
2016-06-30T12:45:30.646Z,24.36
2016-06-30T12:46:30.674Z,24.46
2016-06-30T12:47:30.110Z,24.27
2016-06-30T12:48:30.731Z,23.79
2016-06-30T12:49:30.774Z,23.88
2016-06-30T12:50:30.818Z,23.79
2016-06-30T12:51:30.209Z,23.79
2016-06-30T12:52:30.234Z,23.7
2016-06-30T12:53:30.291Z,23.41
2016-06-30T12:54:30.932Z,23.41